Time,TemperatureF,DewpointF,PressureIn,WindDirection,WindDirectionDegrees,WindSpeedMPH,WindSpeedGustMPH,Humidity,HourlyPrecipIn,Conditions,Clouds,dailyrainin,SolarRadiationWatts/m^2,SoftwareType,DateUTC
2013-05-12 00:05:00,52.8,48.1,-100.00,SW,220,1.3,2.9,83,-99.99,,,-99.99,1.0,HOBO +U30 +Weather +,2013-05-12 04:05:00,
2013-05-12 00:16:00,52.7,48.1,-100.00,SSE,154,1.6,4.3,84,-99.99,,,-99.99,1.0,HOBO +U30 +Weather +,2013-05-12 04:16:00,
2013-05-12 00:27:00,52.9,48.3,-100.00,SSW,201,2.5,5.8,84,-99.99,,,-99.99,1.0,HOBO +U30 +Weather +,2013-05-12 04:27:00,
2013-05-12 00:38:00,53.0,48.5,-100.00,WSW,253,2.0,4.5,84,-99.99,,,-99.99,1.0,HOBO +U30 +Weather +,2013-05-12 04:38:00,
2013-05-12 00:48:00,52.9,48.4,-100.00,SW,215,4.5,10.3,84,-99.99,,,-99.99,1.0,HOBO +U30 +Weather +,2013-05-12 04:48:00,
2013-05-12 00:59:00,53.2,48.7,-100.00,SSE,163,2.5,9.2,84,-99.99,,,-99.99,1.0,HOBO +U30 +Weather +,2013-05-12 04:59:00,
2013-05-12 01:00:00,53.2,48.7,-100.00,West,275,2.5,8.7,84,-99.99,,,-99.99,1.0,HOBO +U30 +Weather +,2013-05-12 05:00:00,
2013-05-12 01:10:00,53.1,48.6,-100.00,West,267,4.9,12.5,84,-99.99,,,-99.99,1.0,HOBO +U30 +Weather +,2013-05-12 05:10:00,
2013-05-12 01:21:00,53.1,48.8,-100.00,West,272,4.3,12.5,85,-99.99,,,-99.99,1.0,HOBO +U30 +Weather +,2013-05-12 05:21:00,
2013-05-12 01:32:00,52.7,48.9,-100.00,West,271,4.9,9.2,86,-99.99,,,-99.99,1.0,HOBO +U30 +Weather +,2013-05-12 05:32:00,
2013-05-12 01:43:00,52.3,47.9,-100.00,WNW,282,8.3,23.3,84,-99.99,,,-99.99,1.0,HOBO +U30 +Weather +,2013-05-12 05:43:00,
2013-05-12 01:54:00,51.2,43.0,-100.00,West,272,10.1,19.9,73,-99.99,,,-99.99,1.0,HOBO +U30 +Weather +,2013-05-12 05:54:00,
2013-05-12 01:55:00,50.5,41.8,-100.00,WNW,286,6.3,13.0,71,-99.99,,,-99.99,1.0,HOBO +U30 +Weather +,2013-05-12 05:55:00,
2013-05-12 02:05:00,49.7,41.1,-100.00,WNW,302,7.4,15.0,72,-99.99,,,-99.99,1.0,HOBO +U30 +Weather +,2013-05-12 06:05:00,
2013-05-12 02:15:00,49.1,41.2,-100.00,WNW,295,7.2,17.4,73,-99.99,,,-99.99,1.0,HOBO +U30 +Weather +,2013-05-12 06:15:00,
2013-05-12 02:25:00,48.7,41.3,-100.00,WNW,292,10.1,20.8,75,-99.99,,,-99.99,1.0,HOBO +U30 +Weather +,2013-05-12 06:25:00,
2013-05-12 02:36:00,48.6,41.7,-100.00,West,267,8.3,17.4,77,-99.99,,,-99.99,1.0,HOBO +U30 +Weather +,2013-05-12 06:36:00,
2013-05-12 02:46:00,48.3,41.3,-100.00,WNW,286,8.3,16.1,76,-99.99,,,-99.99,1.0,HOBO +U30 +Weather +,2013-05-12 06:46:00,
2013-05-12 02:56:00,48.2,41.4,-100.00,WNW,295,7.8,15.4,77,-99.99,,,-99.99,1.0,HOBO +U30 +Weather +,2013-05-12 06:56:00,
2013-05-12 03:06:00,48.2,41.5,-100.00,WNW,289,5.8,13.0,77,-99.99,,,-99.99,1.0,HOBO +U30 +Weather +,2013-05-12 07:06:00,
2013-05-12 03:16:00,48.4,41.6,-100.00,WNW,299,4.5,11.6,77,-99.99,,,-99.99,1.0,HOBO +U30 +Weather +,2013-05-12 07:16:00,
2013-05-12 03:26:00,48.4,41.8,-100.00,West,274,4.5,8.3,77,-99.99,,,-99.99,1.0,HOBO +U30 +Weather +,2013-05-12 07:26:00,
2013-05-12 03:36:00,48.3,42.0,-100.00,West,281,4.9,10.7,78,-99.99,,,-99.99,1.0,HOBO +U30 +Weather +,2013-05-12 07:36:00,
2013-05-12 03:48:00,47.2,41.6,-100.00,WNW,303,7.2,17.0,80,-99.99,,,-99.99,1.0,HOBO +U30 +Weather +,2013-05-12 07:48:00,
2013-05-12 03:57:00,46.8,40.4,-100.00,WNW,288,6.3,14.5,78,-99.99,,,-99.99,1.0,HOBO +U30 +Weather +,2013-05-12 07:57:00,
2013-05-12 04:08:00,45.8,38.4,-100.00,NW,306,9.6,15.0,75,-99.99,,,-99.99,1.0,HOBO +U30 +Weather +,2013-05-12 08:08:00,
2013-05-12 04:19:00,45.6,37.9,-100.00,WNW,299,5.8,14.5,74,-99.99,,,-99.99,1.0,HOBO +U30 +Weather +,2013-05-12 08:19:00,
2013-05-12 04:20:00,45.2,37.2,-100.00,WNW,292,6.3,14.1,73,-99.99,,,-99.99,1.0,HOBO +U30 +Weather +,2013-05-12 08:20:00,
2013-05-12 04:30:00,44.9,36.4,-100.00,NW,305,7.2,16.6,72,-99.99,,,-99.99,1.0,HOBO +U30 +Weather +,2013-05-12 08:30:00,
2013-05-12 04:39:00,44.5,35.2,-100.00,WNW,300,6.7,15.4,69,-99.99,,,-99.99,1.0,HOBO +U30 +Weather +,2013-05-12 08:39:00,
2013-05-12 04:40:00,43.7,33.3,-100.00,WNW,298,7.4,14.5,66,-99.99,,,-99.99,1.0,HOBO +U30 +Weather +,2013-05-12 08:40:00,
2013-05-12 04:50:00,43.5,33.1,-100.00,NW,309,6.3,13.0,66,-99.99,,,-99.99,1.0,HOBO +U30 +Weather +,2013-05-12 08:50:00,
2013-05-12 05:00:00,43.0,31.9,-100.00,WNW,295,5.8,13.0,64,-99.99,,,-99.99,1.0,HOBO +U30 +Weather +,2013-05-12 09:00:00,
2013-05-12 05:12:00,42.7,31.7,-100.00,WNW,302,4.5,10.1,64,-99.99,,,-99.99,1.0,HOBO +U30 +Weather +,2013-05-12 09:12:00,
2013-05-12 05:22:00,42.5,31.3,-100.00,WNW,299,2.9,7.4,64,-99.99,,,-99.99,1.0,HOBO +U30 +Weather +,2013-05-12 09:22:00,
2013-05-12 05:32:00,42.2,30.5,-100.00,NW,306,3.8,9.2,63,-99.99,,,-99.99,1.0,HOBO +U30 +Weather +,2013-05-12 09:32:00,
2013-05-12 05:43:00,41.9,30.7,-100.00,WNW,300,3.4,7.8,64,-99.99,,,-99.99,1.0,HOBO +U30 +Weather +,2013-05-12 09:43:00,
2013-05-12 05:54:00,41.7,31.0,-100.00,WNW,289,1.6,6.7,65,-99.99,,,-99.99,1.0,HOBO +U30 +Weather +,2013-05-12 09:54:00,
2013-05-12 06:04:00,41.5,31.5,-100.00,WNW,295,2.0,6.3,67,-99.99,,,-99.99,1.0,HOBO +U30 +Weather +,2013-05-12 10:04:00,
2013-05-12 06:05:00,41.4,32.1,-100.00,WNW,286,2.9,7.4,69,-99.99,,,-99.99,4.0,HOBO +U30 +Weather +,2013-05-12 10:05:00,
2013-05-12 06:15:00,41.3,32.3,-100.00,West,281,2.9,4.9,70,-99.99,,,-99.99,6.0,HOBO +U30 +Weather +,2013-05-12 10:15:00,
2013-05-12 06:26:00,41.3,32.9,-100.00,WNW,292,2.9,7.4,71,-99.99,,,-99.99,12.0,HOBO +U30 +Weather +,2013-05-12 10:26:00,
2013-05-12 06:37:00,41.2,33.3,-100.00,NW,309,1.6,5.4,73,-99.99,,,-99.99,22.0,HOBO +U30 +Weather +,2013-05-12 10:37:00,
2013-05-12 06:48:00,41.6,33.9,-100.00,WNW,295,2.0,6.7,74,-99.99,,,-99.99,46.0,HOBO +U30 +Weather +,2013-05-12 10:48:00,
2013-05-12 06:59:00,42.1,34.2,-100.00,WNW,285,2.9,9.2,73,-99.99,,,-99.99,76.0,HOBO +U30 +Weather +,2013-05-12 10:59:00,
2013-05-12 07:00:00,41.7,34.6,-100.00,SSW,198,2.0,6.7,75,-99.99,,,-99.99,113.0,HOBO +U30 +Weather +,2013-05-12 11:00:00,
2013-05-12 07:10:00,42.1,35.2,-100.00,SSW,209,2.0,4.9,76,-99.99,,,-99.99,133.0,HOBO +U30 +Weather +,2013-05-12 11:10:00,
2013-05-12 07:21:00,42.4,33.7,-100.00,WSW,248,2.9,6.3,70,-99.99,,,-99.99,164.0,HOBO +U30 +Weather +,2013-05-12 11:21:00,
2013-05-12 07:32:00,42.8,33.3,-100.00,West,272,3.4,10.1,68,-99.99,,,-99.99,192.0,HOBO +U30 +Weather +,2013-05-12 11:32:00,
2013-05-12 07:43:00,42.9,33.5,-100.00,West,274,4.5,8.3,69,-99.99,,,-99.99,222.0,HOBO +U30 +Weather +,2013-05-12 11:43:00,
2013-05-12 07:54:00,43.0,34.0,-100.00,West,260,4.5,11.6,70,-99.99,,,-99.99,256.0,HOBO +U30 +Weather +,2013-05-12 11:54:00,
2013-05-12 08:04:00,44.1,34.9,-100.00,West,281,4.3,10.1,70,-99.99,,,-99.99,297.0,HOBO +U30 +Weather +,2013-05-12 12:04:00,
2013-05-12 08:05:00,43.4,34.1,-100.00,WSW,246,4.9,11.2,69,-99.99,,,-99.99,321.0,HOBO +U30 +Weather +,2013-05-12 12:05:00,
2013-05-12 08:15:00,43.7,34.2,-100.00,West,260,3.8,9.6,69,-99.99,,,-99.99,343.0,HOBO +U30 +Weather +,2013-05-12 12:15:00,
2013-05-12 08:24:00,44.3,34.9,-100.00,WSW,258,3.8,10.1,69,-99.99,,,-99.99,359.0,HOBO +U30 +Weather +,2013-05-12 12:24:00,
2013-05-12 08:34:00,45.1,35.0,-100.00,West,278,3.8,8.7,67,-99.99,,,-99.99,394.0,HOBO +U30 +Weather +,2013-05-12 12:34:00,
2013-05-12 08:35:00,44.5,34.6,-100.00,West,263,6.7,13.0,68,-99.99,,,-99.99,428.0,HOBO +U30 +Weather +,2013-05-12 12:35:00,
2013-05-12 08:45:00,44.6,34.2,-100.00,West,279,9.2,17.9,66,-99.99,,,-99.99,452.0,HOBO +U30 +Weather +,2013-05-12 12:45:00,
2013-05-12 08:54:00,45.2,34.5,-100.00,WNW,284,4.9,9.6,65,-99.99,,,-99.99,488.0,HOBO +U30 +Weather +,2013-05-12 12:54:00,
2013-05-12 09:04:00,45.1,34.6,-100.00,West,261,6.7,17.4,66,-99.99,,,-99.99,529.0,HOBO +U30 +Weather +,2013-05-12 13:04:00,
2013-05-12 09:05:00,44.9,32.8,-100.00,West,274,9.2,16.1,62,-99.99,,,-99.99,208.0,HOBO +U30 +Weather +,2013-05-12 13:05:00,
2013-05-12 09:15:00,45.6,33.2,-100.00,West,275,5.8,13.2,61,-99.99,,,-99.99,554.0,HOBO +U30 +Weather +,2013-05-12 13:15:00,
2013-05-12 09:25:00,45.3,31.7,-100.00,West,268,12.1,20.8,58,-99.99,,,-99.99,579.0,HOBO +U30 +Weather +,2013-05-12 13:25:00,
2013-05-12 09:36:00,46.4,31.4,-100.00,WNW,282,6.7,14.1,55,-99.99,,,-99.99,617.0,HOBO +U30 +Weather +,2013-05-12 13:36:00,
2013-05-12 09:47:00,46.9,31.2,-100.00,West,277,7.2,14.5,54,-99.99,,,-99.99,663.0,HOBO +U30 +Weather +,2013-05-12 13:47:00,
2013-05-12 09:58:00,47.6,30.4,-100.00,West,279,8.3,19.9,51,-99.99,,,-99.99,713.0,HOBO +U30 +Weather +,2013-05-12 13:58:00,
2013-05-12 10:07:00,47.0,28.1,-100.00,West,268,9.6,17.4,47,-99.99,,,-99.99,167.0,HOBO +U30 +Weather +,2013-05-12 14:07:00,
2013-05-12 10:18:00,47.8,27.3,-100.00,WNW,285,8.3,17.9,44,-99.99,,,-99.99,829.0,HOBO +U30 +Weather +,2013-05-12 14:18:00,
2013-05-12 10:28:00,48.2,27.7,-100.00,West,271,10.3,23.7,44,-99.99,,,-99.99,319.0,HOBO +U30 +Weather +,2013-05-12 14:28:00,
2013-05-12 10:38:00,47.7,26.8,-100.00,West,268,11.6,23.7,43,-99.99,,,-99.99,938.0,HOBO +U30 +Weather +,2013-05-12 14:38:00,
2013-05-12 10:40:00,48.0,27.5,-100.00,West,267,12.5,20.8,44,-99.99,,,-99.99,1031.0,HOBO +U30 +Weather +,2013-05-12 14:40:00,
2013-05-12 10:45:00,48.3,26.9,-100.00,West,271,10.3,20.4,43,-99.99,,,-99.99,963.0,HOBO +U30 +Weather +,2013-05-12 14:45:00,
2013-05-12 10:50:00,48.9,28.5,-100.00,West,265,11.2,24.8,44,-99.99,,,-99.99,342.0,HOBO +U30 +Weather +,2013-05-12 14:50:00,
2013-05-12 11:01:00,49.5,28.8,-100.00,West,265,7.2,19.5,44,-99.99,,,-99.99,408.0,HOBO +U30 +Weather +,2013-05-12 15:01:00,
2013-05-12 11:09:00,48.8,26.7,-100.00,West,279,10.3,23.3,41,-99.99,,,-99.99,259.0,HOBO +U30 +Weather +,2013-05-12 15:09:00,
2013-05-12 11:10:00,48.4,26.7,-100.00,West,268,10.3,16.6,42,-99.99,,,-99.99,1018.0,HOBO +U30 +Weather +,2013-05-12 15:10:00,
2013-05-12 11:20:00,48.3,26.5,-100.00,West,278,10.7,20.8,42,-99.99,,,-99.99,779.0,HOBO +U30 +Weather +,2013-05-12 15:20:00,
2013-05-12 11:31:00,49.2,27.0,-100.00,West,263,11.2,20.4,41,-99.99,,,-99.99,576.0,HOBO +U30 +Weather +,2013-05-12 15:31:00,
2013-05-12 11:41:00,48.3,26.1,-100.00,West,272,13.0,23.3,41,-99.99,,,-99.99,896.0,HOBO +U30 +Weather +,2013-05-12 15:41:00,
2013-05-12 11:53:00,48.8,26.1,-100.00,West,277,12.1,21.9,40,-99.99,,,-99.99,428.0,HOBO +U30 +Weather +,2013-05-12 15:53:00,
2013-05-12 12:03:00,48.8,26.9,-100.00,West,271,10.1,21.5,42,-99.99,,,-99.99,484.0,HOBO +U30 +Weather +,2013-05-12 16:03:00,
2013-05-12 12:14:00,50.4,28.4,-100.00,WNW,284,6.7,24.8,42,-99.99,,,-99.99,677.0,HOBO +U30 +Weather +,2013-05-12 16:14:00,
2013-05-12 12:15:00,50.0,28.2,-100.00,WNW,286,7.8,17.9,42,-99.99,,,-99.99,562.0,HOBO +U30 +Weather +,2013-05-12 16:15:00,
2013-05-12 12:25:00,50.2,27.7,-100.00,West,275,8.7,18.3,41,-99.99,,,-99.99,293.0,HOBO +U30 +Weather +,2013-05-12 16:25:00,
2013-05-12 12:35:00,49.1,27.3,-100.00,WSW,240,8.3,21.3,42,-99.99,,,-99.99,214.0,HOBO +U30 +Weather +,2013-05-12 16:35:00,
2013-05-12 12:46:00,49.1,29.0,-100.00,WNW,284,8.7,19.0,45,-99.99,,,-99.99,1013.0,HOBO +U30 +Weather +,2013-05-12 16:46:00,
2013-05-12 12:57:00,49.4,27.4,-100.00,West,271,10.7,21.5,42,-99.99,,,-99.99,276.0,HOBO +U30 +Weather +,2013-05-12 16:57:00,
2013-05-12 13:08:00,49.6,28.8,-100.00,West,271,12.1,20.4,44,-99.99,,,-99.99,1207.0,HOBO +U30 +Weather +,2013-05-12 17:08:00,
2013-05-12 13:19:00,50.9,29.8,-100.00,West,274,6.7,18.3,44,-99.99,,,-99.99,1144.0,HOBO +U30 +Weather +,2013-05-12 17:19:00,
2013-05-12 13:20:00,51.9,29.0,-100.00,WNW,284,7.8,19.0,41,-99.99,,,-99.99,421.0,HOBO +U30 +Weather +,2013-05-12 17:20:00,
2013-05-12 13:31:00,51.3,28.4,-100.00,West,265,7.8,16.1,41,-99.99,,,-99.99,432.0,HOBO +U30 +Weather +,2013-05-12 17:31:00,
2013-05-12 13:41:00,50.6,26.7,-100.00,West,277,12.5,24.8,39,-99.99,,,-99.99,392.0,HOBO +U30 +Weather +,2013-05-12 17:41:00,
2013-05-12 13:51:00,50.2,28.3,-100.00,West,271,10.1,19.0,42,-99.99,,,-99.99,966.0,HOBO +U30 +Weather +,2013-05-12 17:51:00,
2013-05-12 14:01:00,50.9,28.6,-100.00,West,281,8.3,20.8,41,-99.99,,,-99.99,1277.0,HOBO +U30 +Weather +,2013-05-12 18:01:00,
2013-05-12 14:11:00,52.1,27.8,-100.00,West,267,10.1,23.7,38,-99.99,,,-99.99,677.0,HOBO +U30 +Weather +,2013-05-12 18:11:00,
2013-05-12 14:21:00,50.7,26.4,-100.00,West,271,12.1,23.3,38,-99.99,,,-99.99,307.0,HOBO +U30 +Weather +,2013-05-12 18:21:00,
2013-05-12 14:31:00,51.0,27.7,-100.00,West,274,10.3,20.4,40,-99.99,,,-99.99,1039.0,HOBO +U30 +Weather +,2013-05-12 18:31:00,
2013-05-12 14:42:00,53.3,27.3,-100.00,WNW,295,7.8,20.4,36,-99.99,,,-99.99,1277.0,HOBO +U30 +Weather +,2013-05-12 18:42:00,
2013-05-12 14:52:00,51.6,26.1,-100.00,West,277,10.1,18.6,36,-99.99,,,-99.99,396.0,HOBO +U30 +Weather +,2013-05-12 18:52:00,
2013-05-12 15:02:00,50.8,25.4,-100.00,West,274,13.0,24.8,36,-99.99,,,-99.99,297.0,HOBO +U30 +Weather +,2013-05-12 19:02:00,
2013-05-12 15:13:00,50.7,25.7,-100.00,West,268,13.2,29.1,37,-99.99,,,-99.99,496.0,HOBO +U30 +Weather +,2013-05-12 19:13:00,
2013-05-12 15:23:00,51.5,26.0,-100.00,West,274,9.2,18.6,36,-99.99,,,-99.99,489.0,HOBO +U30 +Weather +,2013-05-12 19:23:00,
2013-05-12 15:33:00,51.9,25.7,-100.00,West,275,9.6,20.8,35,-99.99,,,-99.99,293.0,HOBO +U30 +Weather +,2013-05-12 19:33:00,
2013-05-12 15:44:00,50.5,25.5,-100.00,West,274,14.1,28.6,37,-99.99,,,-99.99,979.0,HOBO +U30 +Weather +,2013-05-12 19:44:00,
2013-05-12 15:54:00,51.1,26.2,-100.00,West,279,11.6,25.3,37,-99.99,,,-99.99,328.0,HOBO +U30 +Weather +,2013-05-12 19:54:00,
2013-05-12 16:04:00,51.7,25.6,-100.00,West,277,13.2,25.7,36,-99.99,,,-99.99,331.0,HOBO +U30 +Weather +,2013-05-12 20:04:00,
2013-05-12 16:05:00,51.3,26.4,-100.00,WSW,256,9.6,20.4,37,-99.99,,,-99.99,398.0,HOBO +U30 +Weather +,2013-05-12 20:05:00,
2013-05-12 16:15:00,51.1,27.0,-100.00,West,277,10.3,20.4,39,-99.99,,,-99.99,263.0,HOBO +U30 +Weather +,2013-05-12 20:15:00,
2013-05-12 16:16:00,51.2,26.8,-100.00,West,278,9.6,21.3,38,-99.99,,,-99.99,349.0,HOBO +U30 +Weather +,2013-05-12 20:16:00,
2013-05-12 16:26:00,51.7,27.3,-100.00,WNW,289,7.2,12.1,38,-99.99,,,-99.99,286.0,HOBO +U30 +Weather +,2013-05-12 20:26:00,
2013-05-12 16:36:00,51.9,26.9,-100.00,WNW,285,8.7,17.4,37,-99.99,,,-99.99,293.0,HOBO +U30 +Weather +,2013-05-12 20:36:00,
2013-05-12 16:47:00,50.9,26.1,-100.00,West,278,10.7,26.2,37,-99.99,,,-99.99,871.0,HOBO +U30 +Weather +,2013-05-12 20:47:00,
2013-05-12 16:58:00,51.8,26.1,-100.00,WSW,257,12.1,20.8,36,-99.99,,,-99.99,232.0,HOBO +U30 +Weather +,2013-05-12 20:58:00,
2013-05-12 17:08:00,53.0,26.3,-100.00,WNW,284,11.2,26.6,35,-99.99,,,-99.99,814.0,HOBO +U30 +Weather +,2013-05-12 21:08:00,
2013-05-12 17:19:00,51.4,26.3,-100.00,WSW,253,10.7,20.8,37,-99.99,,,-99.99,172.0,HOBO +U30 +Weather +,2013-05-12 21:19:00,
2013-05-12 17:20:00,51.2,25.9,-100.00,West,271,12.5,22.4,37,-99.99,,,-99.99,222.0,HOBO +U30 +Weather +,2013-05-12 21:20:00,
2013-05-12 17:30:00,51.0,26.2,-100.00,West,277,10.7,17.4,37,-99.99,,,-99.99,188.0,HOBO +U30 +Weather +,2013-05-12 21:30:00,
2013-05-12 17:40:00,51.0,26.3,-100.00,West,275,12.1,21.9,38,-99.99,,,-99.99,166.0,HOBO +U30 +Weather +,2013-05-12 21:40:00,
2013-05-12 17:51:00,51.1,27.5,-100.00,WNW,284,7.4,17.9,39,-99.99,,,-99.99,321.0,HOBO +U30 +Weather +,2013-05-12 21:51:00,
2013-05-12 18:02:00,50.6,26.9,-100.00,West,271,9.6,15.4,39,-99.99,,,-99.99,146.0,HOBO +U30 +Weather +,2013-05-12 22:02:00,
2013-05-12 18:13:00,51.1,26.7,-100.00,West,277,10.3,21.3,38,-99.99,,,-99.99,131.0,HOBO +U30 +Weather +,2013-05-12 22:13:00,
2013-05-12 18:24:00,51.0,27.2,-100.00,West,268,14.5,28.6,39,-99.99,,,-99.99,456.0,HOBO +U30 +Weather +,2013-05-12 22:24:00,
2013-05-12 18:34:00,51.3,26.2,-100.00,West,278,10.3,22.8,37,-99.99,,,-99.99,371.0,HOBO +U30 +Weather +,2013-05-12 22:34:00,
2013-05-12 18:35:00,50.5,25.4,-100.00,West,275,10.7,23.3,37,-99.99,,,-99.99,113.0,HOBO +U30 +Weather +,2013-05-12 22:35:00,
2013-05-12 18:46:00,50.5,26.3,-100.00,WNW,282,10.7,22.4,38,-99.99,,,-99.99,122.0,HOBO +U30 +Weather +,2013-05-12 22:46:00,
2013-05-12 18:57:00,50.4,26.6,-100.00,West,271,10.3,22.8,39,-99.99,,,-99.99,93.0,HOBO +U30 +Weather +,2013-05-12 22:57:00,
2013-05-12 19:07:00,50.4,27.0,-100.00,WNW,284,8.7,20.4,40,-99.99,,,-99.99,79.0,HOBO +U30 +Weather +,2013-05-12 23:07:00,
2013-05-12 19:19:00,50.3,26.7,-100.00,West,271,12.1,20.8,39,-99.99,,,-99.99,112.0,HOBO +U30 +Weather +,2013-05-12 23:19:00,
2013-05-12 19:29:00,50.6,27.3,-100.00,West,274,6.7,14.1,40,-99.99,,,-99.99,67.0,HOBO +U30 +Weather +,2013-05-12 23:29:00,
2013-05-12 19:39:00,50.4,27.1,-100.00,West,264,8.7,15.9,40,-99.99,,,-99.99,76.0,HOBO +U30 +Weather +,2013-05-12 23:39:00,
2013-05-12 19:49:00,50.1,26.6,-100.00,West,271,7.2,15.0,39,-99.99,,,-99.99,39.0,HOBO +U30 +Weather +,2013-05-12 23:49:00,
2013-05-12 19:59:00,50.2,26.8,-100.00,WNW,282,6.3,15.9,40,-99.99,,,-99.99,21.0,HOBO +U30 +Weather +,2013-05-12 23:59:00,
2013-05-12 20:09:00,49.9,26.7,-100.00,West,267,7.4,18.6,40,-99.99,,,-99.99,16.0,HOBO +U30 +Weather +,2013-05-13 00:09:00,
2013-05-12 20:19:00,49.8,27.0,-100.00,WNW,282,5.8,13.0,40,-99.99,,,-99.99,3.0,HOBO +U30 +Weather +,2013-05-13 00:19:00,
2013-05-12 20:29:00,49.8,26.9,-100.00,West,277,9.2,17.0,40,-99.99,,,-99.99,3.0,HOBO +U30 +Weather +,2013-05-13 00:29:00,
2013-05-12 20:30:00,49.7,27.1,-100.00,West,278,5.4,10.3,41,-99.99,,,-99.99,1.0,HOBO +U30 +Weather +,2013-05-13 00:30:00,
2013-05-12 20:40:00,49.7,27.3,-100.00,WNW,289,4.3,10.1,41,-99.99,,,-99.99,1.0,HOBO +U30 +Weather +,2013-05-13 00:40:00,
2013-05-12 20:50:00,49.6,27.7,-100.00,WNW,289,6.7,14.1,42,-99.99,,,-99.99,1.0,HOBO +U30 +Weather +,2013-05-13 00:50:00,
2013-05-12 21:01:00,49.6,28.4,-100.00,WNW,289,3.8,10.1,43,-99.99,,,-99.99,1.0,HOBO +U30 +Weather +,2013-05-13 01:01:00,
2013-05-12 21:11:00,49.3,28.5,-100.00,West,264,5.4,8.7,44,-99.99,,,-99.99,1.0,HOBO +U30 +Weather +,2013-05-13 01:11:00,
2013-05-12 21:21:00,49.2,28.1,-100.00,West,275,6.7,13.6,43,-99.99,,,-99.99,1.0,HOBO +U30 +Weather +,2013-05-13 01:21:00,
2013-05-12 21:32:00,49.1,28.5,-100.00,West,265,5.4,10.7,44,-99.99,,,-99.99,1.0,HOBO +U30 +Weather +,2013-05-13 01:32:00,
2013-05-12 21:42:00,49.1,28.1,-100.00,West,267,11.2,19.0,43,-99.99,,,-99.99,1.0,HOBO +U30 +Weather +,2013-05-13 01:42:00,
2013-05-12 21:53:00,49.0,27.3,-100.00,West,268,8.3,15.4,42,-99.99,,,-99.99,1.0,HOBO +U30 +Weather +,2013-05-13 01:53:00,
2013-05-12 22:03:00,48.8,27.5,-100.00,West,272,7.8,16.6,43,-99.99,,,-99.99,1.0,HOBO +U30 +Weather +,2013-05-13 02:03:00,
2013-05-12 22:14:00,48.8,26.6,-100.00,West,271,10.1,19.0,41,-99.99,,,-99.99,1.0,HOBO +U30 +Weather +,2013-05-13 02:14:00,
2013-05-12 22:24:00,48.6,27.2,-100.00,West,272,10.1,20.4,43,-99.99,,,-99.99,1.0,HOBO +U30 +Weather +,2013-05-13 02:24:00,
2013-05-12 22:25:00,48.5,27.3,-100.00,West,277,10.1,20.4,43,-99.99,,,-99.99,1.0,HOBO +U30 +Weather +,2013-05-13 02:25:00,
2013-05-12 22:35:00,48.4,27.3,-100.00,West,277,9.2,19.5,43,-99.99,,,-99.99,1.0,HOBO +U30 +Weather +,2013-05-13 02:35:00,
2013-05-12 22:46:00,48.2,27.4,-100.00,WNW,285,7.2,13.2,44,-99.99,,,-99.99,1.0,HOBO +U30 +Weather +,2013-05-13 02:46:00,
2013-05-12 22:56:00,48.1,27.6,-100.00,West,270,7.8,12.1,44,-99.99,,,-99.99,1.0,HOBO +U30 +Weather +,2013-05-13 02:56:00,
2013-05-12 23:08:00,47.9,28.0,-100.00,West,267,8.7,18.3,45,-99.99,,,-99.99,1.0,HOBO +U30 +Weather +,2013-05-13 03:08:00,
2013-05-12 23:18:00,47.8,28.3,-100.00,West,271,9.2,15.0,46,-99.99,,,-99.99,1.0,HOBO +U30 +Weather +,2013-05-13 03:18:00,
2013-05-12 23:28:00,47.6,28.5,-100.00,West,267,9.6,16.6,47,-99.99,,,-99.99,1.0,HOBO +U30 +Weather +,2013-05-13 03:28:00,
2013-05-12 23:39:00,47.4,28.4,-100.00,West,264,7.4,15.0,47,-99.99,,,-99.99,1.0,HOBO +U30 +Weather +,2013-05-13 03:39:00,
2013-05-12 23:40:00,47.4,28.4,-100.00,West,265,9.6,19.5,47,-99.99,,,-99.99,1.0,HOBO +U30 +Weather +,2013-05-13 03:40:00,
2013-05-12 23:50:00,47.4,28.7,-100.00,West,272,7.8,14.5,48,-99.99,,,-99.99,1.0,HOBO +U30 +Weather +,2013-05-13 03:50:00,